Time;durP1;ratioP1;P1;durP2;ratioP2;P2;SDS_P1;SDS_P2;PMS_P1;PMS_P2;Temp;Humidity;BMP_temperature;BMP_pressure;BME280_temperature;BME280_humidity;BME280_pressure;Samples;Min_cycle;Max_cycle;Signal;HPM_P1;HPM_P2
2021/01/22 00:02:22;;;;;;;3.70;1.37;;;;;;;6.67;100.00;97647.84;5009924;28;20034;-67
2021/01/22 00:04:47;;;;;;;3.67;1.30;;;;;;;6.68;100.00;97639.13;5012253;28;20443;-68
2021/01/22 00:07:13;;;;;;;3.50;1.20;;;;;;;6.79;100.00;97637.03;5010955;28;20114;-68
2021/01/22 00:09:39;;;;;;;4.20;1.83;;;;;;;6.94;100.00;97638.28;5010132;28;20025;-68
2021/01/22 00:12:05;;;;;;;3.70;1.40;;;;;;;7.03;100.00;97631.03;5008229;28;20026;-67
2021/01/22 00:14:30;;;;;;;2.50;0.93;;;;;;;7.10;100.00;97633.41;5007557;28;20041;-67
2021/01/22 00:16:56;;;;;;;2.73;0.90;;;;;;;7.20;100.00;97627.00;5008712;28;20473;-67
2021/01/22 00:19:22;;;;;;;2.43;1.10;;;;;;;7.26;100.00;97627.59;5003690;28;20109;-67
2021/01/22 00:21:48;;;;;;;4.47;0.97;;;;;;;7.38;100.00;97610.75;5008320;28;20034;-67
2021/01/22 00:24:13;;;;;;;3.17;1.40;;;;;;;7.40;100.00;97613.31;5006983;28;20460;-68
2021/01/22 00:26:38;;;;;;;1.87;1.00;;;;;;;7.56;100.00;97612.69;5009158;28;20081;-67
2021/01/22 00:29:04;;;;;;;2.50;1.10;;;;;;;7.83;100.00;97587.41;5008689;28;20080;-67
2021/01/22 00:31:29;;;;;;;2.30;1.00;;;;;;;7.96;100.00;97613.81;5008934;28;20102;-67
2021/01/22 00:33:55;;;;;;;1.30;0.73;;;;;;;8.19;100.00;97595.56;5005082;28;20428;-68
2021/01/22 00:36:20;;;;;;;1.70;0.90;;;;;;;8.15;100.00;97599.19;5009969;28;20473;-67
2021/01/22 00:38:45;;;;;;;2.73;1.10;;;;;;;8.20;100.00;97597.25;5009122;28;20041;-68
2021/01/22 00:41:11;;;;;;;1.70;1.00;;;;;;;8.35;100.00;97590.59;5006128;28;20481;-68
2021/01/22 00:43:36;;;;;;;1.77;0.73;;;;;;;8.57;100.00;97589.75;5005977;28;20104;-67
2021/01/22 00:46:02;;;;;;;1.67;0.90;;;;;;;8.39;100.00;97586.16;5009858;28;20560;-68
2021/01/22 00:48:27;;;;;;;1.27;0.67;;;;;;;8.56;100.00;97583.69;5006018;28;20036;-68
2021/01/22 00:50:53;;;;;;;2.87;1.00;;;;;;;8.52;100.00;97576.94;5008053;28;20033;-68
2021/01/22 00:53:18;;;;;;;2.70;1.00;;;;;;;8.63;100.00;97568.69;5007335;28;20059;-68
2021/01/22 00:55:43;;;;;;;3.27;0.83;;;;;;;8.69;100.00;97569.25;5002401;28;20030;-67
2021/01/22 00:58:09;;;;;;;2.67;0.60;;;;;;;8.73;100.00;97562.19;5007952;28;20049;-67
2021/01/22 01:00:35;;;;;;;2.13;0.90;;;;;;;8.93;100.00;97561.31;5007239;28;20030;-67
2021/01/22 01:03:00;;;;;;;1.97;1.07;;;;;;;8.98;100.00;97551.56;5007929;28;20511;-67
2021/01/22 01:05:26;;;;;;;3.13;0.90;;;;;;;8.96;100.00;97566.41;5008148;28;20029;-68
2021/01/22 01:07:52;;;;;;;2.60;0.63;;;;;;;9.00;100.00;97567.97;5005880;28;20037;-68
2021/01/22 01:10:17;;;;;;;4.20;0.80;;;;;;;8.98;100.00;97569.81;5009432;28;20025;-68
2021/01/22 01:12:43;;;;;;;1.57;0.70;;;;;;;8.98;100.00;97560.22;5007071;28;20612;-68
2021/01/22 01:15:08;;;;;;;1.63;0.60;;;;;;;8.98;100.00;97559.38;5007122;28;20018;-68
2021/01/22 01:17:34;;;;;;;1.23;0.60;;;;;;;8.82;100.00;97554.81;5007431;28;20026;-68
2021/01/22 01:20:00;;;;;;;1.07;0.60;;;;;;;8.73;100.00;97550.00;5007906;28;20056;-68
2021/01/22 01:22:25;;;;;;;1.87;1.00;;;;;;;8.69;100.00;97547.56;5007561;28;20030;-68
2021/01/22 01:24:51;;;;;;;1.33;0.60;;;;;;;8.71;100.00;97551.81;5006078;28;20065;-68
2021/01/22 01:27:16;;;;;;;2.93;0.80;;;;;;;8.74;100.00;97530.00;5006637;28;20030;-68
2021/01/22 01:29:41;;;;;;;1.03;0.60;;;;;;;8.71;100.00;97549.19;5004536;28;20022;-68
2021/01/22 01:32:07;;;;;;;0.70;0.40;;;;;;;8.68;100.00;97525.91;5006193;28;20482;-68
2021/01/22 01:34:32;;;;;;;0.73;0.40;;;;;;;8.71;100.00;97536.19;5006046;28;20017;-69
2021/01/22 01:36:58;;;;;;;1.07;0.63;;;;;;;8.71;100.00;97532.72;5008199;28;20026;-68
2021/01/22 01:39:23;;;;;;;0.83;0.60;;;;;;;8.78;100.00;97531.56;5008048;28;20029;-68
2021/01/22 01:41:49;;;;;;;1.60;0.70;;;;;;;8.72;100.00;97527.47;5008755;28;20022;-68
2021/01/22 01:44:14;;;;;;;1.23;0.50;;;;;;;8.69;100.00;97517.16;5005296;28;20034;-68
2021/01/22 01:46:39;;;;;;;2.47;0.53;;;;;;;8.68;100.00;97522.44;5006228;28;20038;-68
2021/01/22 01:49:05;;;;;;;1.77;0.70;;;;;;;8.64;100.00;97518.28;5008723;28;20030;-68
2021/01/22 01:51:31;;;;;;;0.93;0.57;;;;;;;8.71;100.00;97499.72;5007055;28;20088;-68
2021/01/22 01:53:56;;;;;;;2.37;0.93;;;;;;;8.50;100.00;97516.25;5005888;28;20026;-68
2021/01/22 01:56:22;;;;;;;1.17;0.60;;;;;;;8.60;100.00;97517.56;5003959;28;20025;-68
2021/01/22 01:58:48;;;;;;;0.70;0.50;;;;;;;8.51;100.00;97504.94;5006953;28;20030;-67
2021/01/22 02:01:20;;;;;;;3.37;0.90;;;;;;;8.44;100.00;97506.09;5000572;28;20182;-68
2021/01/22 02:03:46;;;;;;;2.67;1.42;;;;;;;8.41;100.00;97511.44;5009091;28;20033;-67
2021/01/22 02:06:11;;;;;;;1.97;0.87;;;;;;;8.39;100.00;97506.28;5008046;28;20042;-68
2021/01/22 02:08:39;;;;;;;1.23;0.50;;;;;;;8.35;100.00;97503.84;5005738;28;20497;-68
2021/01/22 02:11:06;;;;;;;1.70;0.80;;;;;;;8.41;100.00;97501.03;5006439;28;20030;-68
2021/01/22 02:13:34;;;;;;;2.20;0.70;;;;;;;8.45;100.00;97495.59;5007110;28;20040;-68
2021/01/22 02:16:00;;;;;;;1.50;0.70;;;;;;;8.37;100.00;97486.44;5002553;28;20026;-68
2021/01/22 02:18:26;;;;;;;1.47;0.70;;;;;;;8.40;100.00;97473.28;5004574;28;20049;-67
2021/01/22 02:20:59;;;;;;;3.00;0.77;;;;;;;8.40;100.00;97468.09;5008002;28;20040;-67
2021/01/22 02:23:25;;;;;;;;;;;;;;;8.38;100.00;97475.97;5004831;28;20121;-68
2021/01/22 02:25:56;;;;;;;3.00;0.67;;;;;;;8.42;100.00;97472.31;5001802;28;19913;-67
2021/01/22 02:28:22;;;;;;;1.37;0.87;;;;;;;8.36;100.00;97487.31;5006142;28;20030;-67
2021/01/22 02:30:50;;;;;;;1.73;0.80;;;;;;;8.28;100.00;97478.97;5005941;28;20033;-68
2021/01/22 02:33:18;;;;;;;1.27;0.70;;;;;;;8.27;100.00;97482.50;5002072;28;20120;-68
2021/01/22 02:35:47;;;;;;;1.73;0.80;;;;;;;8.13;100.00;97483.91;5004544;28;20117;-68
2021/01/22 02:38:13;;;;;;;5.43;0.90;;;;;;;8.15;100.00;97476.88;5006565;28;20082;-68
2021/01/22 02:40:43;;;;;;;1.90;0.63;;;;;;;8.25;100.00;97468.69;5005611;28;20030;-67
2021/01/22 02:43:09;;;;;;;4.03;1.00;;;;;;;8.23;100.00;97464.38;5003270;28;20064;-67
2021/01/22 02:45:35;;;;;;;1.43;0.67;;;;;;;8.31;100.00;97426.78;4995233;28;20199;-67
2021/01/22 02:48:00;;;;;;;1.27;0.73;;;;;;;8.22;100.00;97451.44;4994530;28;20544;-68
2021/01/22 02:50:34;;;;;;;4.50;1.03;;;;;;;8.26;100.00;97493.81;4998340;28;20037;-68
2021/01/22 02:53:04;;;;;;;0.60;0.40;;;;;;;7.10;100.00;97552.88;4995328;28;20157;-68
2021/01/22 02:55:34;;;;;;;1.37;0.30;;;;;;;6.20;100.00;97593.09;4989637;28;20065;-69
2021/01/22 02:58:26;;;;;;;0.47;0.40;;;;;;;5.89;100.00;97603.50;4990598;28;20444;-68
2021/01/22 03:00:59;;;;;;;1.10;0.47;;;;;;;5.69;100.00;97621.38;5000477;28;20061;-68
2021/01/22 03:03:48;;;;;;;1.30;0.60;;;;;;;5.61;100.00;97642.34;4992024;28;20060;-68
2021/01/22 03:06:21;;;;;;;1.03;0.50;;;;;;;5.36;100.00;97669.84;5005667;28;20034;-68
2021/01/22 03:08:53;;;;;;;0.77;0.43;;;;;;;4.83;100.00;97678.06;4994873;28;20288;-69
2021/01/22 03:11:20;;;;;;;0.80;0.50;;;;;;;4.45;100.00;97681.56;4995369;28;20287;-67
2021/01/22 03:13:48;;;;;;;0.70;0.50;;;;;;;4.16;100.00;97705.50;4992916;28;20038;-68
2021/01/22 03:16:15;;;;;;;1.20;0.60;;;;;;;4.01;100.00;97700.66;4992954;28;20285;-67
2021/01/22 03:18:56;;;;;;;0.50;0.50;;;;;;;3.87;100.00;97718.16;4990718;28;20376;-67
2021/01/22 03:21:22;;;;;;;1.00;0.60;;;;;;;3.74;100.00;97728.75;4991245;28;20376;-68
2021/01/22 03:23:47;;;;;;;0.67;0.50;;;;;;;3.58;100.00;97747.16;4994267;28;20804;-68
2021/01/22 03:26:12;;;;;;;1.13;0.60;;;;;;;3.41;100.00;97750.91;4995740;28;20026;-67
2021/01/22 03:28:38;;;;;;;0.40;0.40;;;;;;;3.36;100.00;97762.19;4992909;28;20026;-67
2021/01/22 03:31:03;;;;;;;0.50;0.50;;;;;;;3.29;100.00;97765.78;4992285;28;20035;-67
2021/01/22 03:33:29;;;;;;;1.23;0.60;;;;;;;3.22;100.00;97791.69;4997310;28;20025;-68
2021/01/22 03:35:54;;;;;;;0.80;0.50;;;;;;;3.15;100.00;97807.28;4994762;28;20057;-68
2021/01/22 03:38:19;;;;;;;0.40;0.40;;;;;;;3.10;100.00;97816.84;4994568;28;20033;-68
2021/01/22 03:40:45;;;;;;;1.40;0.50;;;;;;;3.08;100.00;97840.09;5007009;28;20445;-68
2021/01/22 03:43:10;;;;;;;1.40;0.60;;;;;;;3.00;100.00;97865.16;4991145;28;20026;-68
2021/01/22 03:45:36;;;;;;;2.00;0.60;;;;;;;2.91;100.00;97868.75;4996346;28;20034;-67
2021/01/22 03:48:02;;;;;;;1.13;0.60;;;;;;;2.83;100.00;97870.56;4991820;28;20302;-68
2021/01/22 03:50:28;;;;;;;0.37;0.37;;;;;;;2.73;100.00;97873.28;4994754;28;20029;-68
2021/01/22 03:52:53;;;;;;;1.00;0.60;;;;;;;2.74;100.00;97875.84;4995638;28;20292;-68
2021/01/22 03:55:19;;;;;;;0.63;0.60;;;;;;;2.72;100.00;97875.00;4994132;28;20488;-68
2021/01/22 03:57:44;;;;;;;0.97;0.47;;;;;;;2.78;100.00;97885.22;4991190;28;20034;-68
2021/01/22 04:00:10;;;;;;;1.53;0.60;;;;;;;2.75;100.00;97887.84;4995319;28;20035;-67
2021/01/22 04:02:36;;;;;;;0.40;0.40;;;;;;;2.71;100.00;97901.69;4990271;28;20026;-68
2021/01/22 04:05:02;;;;;;;0.53;0.50;;;;;;;2.64;100.00;97900.88;4989798;28;20830;-68
2021/01/22 04:07:27;;;;;;;0.77;0.67;;;;;;;2.63;100.00;97916.38;4991519;28;20026;-69
2021/01/22 04:09:53;;;;;;;1.03;0.60;;;;;;;2.59;100.00;97928.47;4999449;28;20308;-68
2021/01/22 04:12:18;;;;;;;0.60;0.50;;;;;;;2.59;100.00;97930.19;4989782;28;20053;-68
2021/01/22 04:14:43;;;;;;;0.73;0.53;;;;;;;2.58;100.00;97931.91;4989173;28;20033;-68
2021/01/22 04:17:09;;;;;;;1.00;0.70;;;;;;;2.60;100.00;97939.63;4995332;28;20123;-69
2021/01/22 04:19:34;;;;;;;0.80;0.43;;;;;;;2.59;100.00;97956.00;4989045;28;20022;-68
2021/01/22 04:21:59;;;;;;;0.87;0.60;;;;;;;2.59;100.00;97961.16;4993308;28;20026;-68
2021/01/22 04:24:26;;;;;;;1.40;0.70;;;;;;;2.60;100.00;97976.59;4994979;28;20553;-68
2021/01/22 04:26:52;;;;;;;1.37;0.70;;;;;;;2.60;100.00;97978.31;4996592;28;20409;-67
2021/01/22 04:29:18;;;;;;;1.90;1.00;;;;;;;2.60;100.00;97980.91;4998240;28;20285;-68
2021/01/22 04:31:43;;;;;;;1.53;0.80;;;;;;;2.60;100.00;97975.75;4999819;28;20022;-68
2021/01/22 04:34:09;;;;;;;1.77;0.80;;;;;;;2.60;100.00;97986.06;5000275;28;20292;-68
2021/01/22 04:36:34;;;;;;;1.90;0.93;;;;;;;2.59;100.00;97979.19;5001272;28;20026;-68
2021/01/22 04:39:00;;;;;;;2.60;0.70;;;;;;;2.66;100.00;98001.47;4989931;28;20026;-68
2021/01/22 04:41:25;;;;;;;2.80;0.90;;;;;;;2.69;100.00;98006.59;4992874;28;20030;-67
2021/01/22 04:43:51;;;;;;;1.20;0.67;;;;;;;2.69;100.00;98006.59;4992431;28;20026;-68
2021/01/22 04:46:17;;;;;;;1.80;0.87;;;;;;;2.71;100.00;98009.16;4995287;28;20076;-68
2021/01/22 04:48:42;;;;;;;2.13;1.10;;;;;;;2.73;100.00;98013.44;4999627;28;20034;-68
2021/01/22 04:51:10;;;;;;;2.27;1.00;;;;;;;2.74;100.00;98015.13;5002958;28;20120;-68
2021/01/22 04:53:36;;;;;;;2.20;1.03;;;;;;;2.71;100.00;98004.88;4992987;28;20026;-69
2021/01/22 04:56:05;;;;;;;3.73;1.23;;;;;;;2.74;100.00;98007.41;4994949;28;20281;-68
2021/01/22 04:58:33;;;;;;;3.00;1.17;;;;;;;2.74;100.00;97989.34;4999914;28;20375;-68
2021/01/22 05:01:00;;;;;;;3.23;1.20;;;;;;;2.74;100.00;98015.13;5007646;28;20649;-68
2021/01/22 05:03:29;;;;;;;2.37;1.30;;;;;;;2.71;100.00;98004.00;4992048;28;20288;-68
2021/01/22 05:05:58;;;;;;;2.60;1.07;;;;;;;2.69;100.00;98022.09;5004159;28;20281;-68
2021/01/22 05:08:24;;;;;;;2.30;1.07;;;;;;;2.67;100.00;98029.00;5001609;28;20299;-68
2021/01/22 05:10:49;;;;;;;2.13;1.03;;;;;;;2.65;100.00;98041.03;5002890;28;20314;-68
2021/01/22 05:13:15;;;;;;;2.97;1.13;;;;;;;2.65;100.00;98048.75;4992911;28;20026;-68
2021/01/22 05:15:40;;;;;;;3.57;1.40;;;;;;;2.63;100.00;98053.09;4991951;28;20030;-68
2021/01/22 05:18:08;;;;;;;3.90;1.57;;;;;;;2.54;100.00;98053.16;4994437;28;20105;-68
2021/01/22 05:20:40;;;;;;;4.47;1.87;;;;;;;2.58;100.00;98044.56;4991859;28;20023;-68
2021/01/22 05:23:07;;;;;;;3.70;1.83;;;;;;;2.59;100.00;98046.25;4992593;28;20297;-68
2021/01/22 05:25:33;;;;;;;6.10;2.30;;;;;;;2.54;100.00;98046.28;4995160;28;20109;-68
2021/01/22 05:27:59;;;;;;;3.50;1.57;;;;;;;2.61;100.00;98044.50;4994951;28;20293;-68
2021/01/22 05:30:29;;;;;;;7.60;2.23;;;;;;;2.56;100.00;98056.63;4999911;28;20380;-68
2021/01/22 05:33:15;;;;;;;4.93;1.93;;;;;;;2.65;100.00;98069.41;5006934;28;20269;-68
2021/01/22 05:35:40;;;;;;;6.13;2.17;;;;;;;2.71;100.00;98091.72;4992296;28;20701;-68
2021/01/22 05:38:05;;;;;;;6.17;1.97;;;;;;;2.75;100.00;98081.34;4992473;28;20277;-68
2021/01/22 05:40:31;;;;;;;5.33;2.23;;;;;;;2.80;100.00;98082.16;4991454;28;20038;-68
2021/01/22 05:42:57;;;;;;;5.87;2.13;;;;;;;2.84;100.00;98088.16;4992363;28;20027;-68
2021/01/22 05:45:46;;;;;;;5.03;2.00;;;;;;;2.91;100.00;98094.97;4991568;28;20030;-68
2021/01/22 05:48:25;;;;;;;5.10;2.13;;;;;;;2.98;100.00;98104.34;4992248;28;20788;-68
2021/01/22 05:50:52;;;;;;;4.23;1.60;;;;;;;3.04;100.00;98106.88;4995189;28;20351;-68
2021/01/22 05:53:18;;;;;;;4.10;1.90;;;;;;;3.08;100.00;98113.69;4992606;28;20290;-68
2021/01/22 05:55:44;;;;;;;4.47;1.90;;;;;;;3.15;100.00;98119.63;4990961;28;20321;-68
2021/01/22 05:58:09;;;;;;;4.73;1.47;;;;;;;3.15;100.00;98124.78;5000696;28;20815;-69
2021/01/22 06:00:35;;;;;;;7.23;2.37;;;;;;;3.15;100.00;98114.47;4995478;28;20054;-68
2021/01/22 06:03:00;;;;;;;3.70;1.57;;;;;;;3.26;100.00;98128.13;4996311;28;20034;-68
2021/01/22 06:05:26;;;;;;;4.73;2.10;;;;;;;3.26;100.00;98127.25;4998885;28;20117;-68
2021/01/22 06:08:07;;;;;;;5.27;1.80;;;;;;;3.23;100.00;98121.28;4998231;28;20414;-68
2021/01/22 06:10:39;;;;;;;3.87;1.73;;;;;;;3.25;100.00;98126.41;4992812;28;20360;-68
2021/01/22 06:13:08;;;;;;;5.85;2.17;;;;;;;3.30;100.00;98134.13;5008982;28;20299;-68
2021/01/22 06:15:35;;;;;;;4.97;2.23;;;;;;;3.35;100.00;98143.53;5008548;28;20538;-68
2021/01/22 06:18:02;;;;;;;6.33;2.47;;;;;;;3.41;100.00;98153.78;5002610;28;20343;-68
2021/01/22 06:20:29;;;;;;;5.03;2.30;;;;;;;3.43;100.00;98162.38;5001479;28;20300;-69
2021/01/22 06:23:06;;;;;;;3.47;1.70;;;;;;;3.49;100.00;98157.13;4993997;28;21076;-68
2021/01/22 06:25:32;;;;;;;6.60;2.73;;;;;;;3.48;100.00;98165.75;4995800;28;20289;-69
2021/01/22 06:28:01;;;;;;;7.17;2.77;;;;;;;3.51;100.00;98170.00;5004274;28;20664;-69
2021/01/22 06:30:27;;;;;;;7.47;2.77;;;;;;;3.58;100.00;98175.97;5009072;28;20277;-69
2021/01/22 06:32:54;;;;;;;8.67;3.53;;;;;;;3.59;100.00;98177.69;4998552;28;20274;-69
2021/01/22 06:35:21;;;;;;;6.30;3.13;;;;;;;3.61;100.00;98175.94;4998919;28;20883;-69
2021/01/22 06:37:47;;;;;;;7.07;2.67;;;;;;;3.64;100.00;98169.03;4996212;28;20297;-69
2021/01/22 06:40:14;;;;;;;7.30;3.23;;;;;;;3.71;100.00;98187.88;4995417;28;20787;-69
2021/01/22 06:42:40;;;;;;;8.30;3.70;;;;;;;3.68;100.00;98193.09;4991402;28;20351;-70
2021/01/22 06:45:06;;;;;;;12.47;3.50;;;;;;;3.75;100.00;98189.53;4990566;28;20776;-69
2021/01/22 06:47:32;;;;;;;7.27;2.93;;;;;;;3.77;100.00;98190.41;5000263;28;20280;-69
2021/01/22 06:49:58;;;;;;;8.33;3.30;;;;;;;3.80;100.00;98192.94;5001444;28;20285;-69
2021/01/22 06:52:23;;;;;;;9.60;2.97;;;;;;;3.81;100.00;98189.50;4995572;28;20369;-69
2021/01/22 06:55:09;;;;;;;8.53;3.17;;;;;;;3.88;100.00;98183.38;5000061;28;20037;-69
2021/01/22 06:57:35;;;;;;;9.60;3.50;;;;;;;3.90;100.00;98194.56;4990518;28;20557;-69
2021/01/22 07:00:01;;;;;;;5.30;2.60;;;;;;;3.95;100.00;98192.75;4992006;28;20269;-69
2021/01/22 07:02:33;;;;;;;9.50;3.23;;;;;;;3.94;100.00;98200.53;5006918;28;20034;-69
2021/01/22 07:04:59;;;;;;;7.57;3.30;;;;;;;3.95;100.00;98189.31;4999165;28;20282;-69
2021/01/22 07:07:48;;;;;;;7.73;3.53;;;;;;;3.93;100.00;98207.44;4990801;28;20277;-69
2021/01/22 07:10:14;;;;;;;8.43;2.77;;;;;;;3.94;100.00;98210.88;4989979;28;20290;-69
2021/01/22 07:12:45;;;;;;;6.63;2.93;;;;;;;3.94;100.00;98216.91;4990987;28;20275;-68
2021/01/22 07:15:20;;;;;;;7.47;3.53;;;;;;;3.98;100.00;98223.72;4990330;28;20034;-69
2021/01/22 07:17:49;;;;;;;12.20;4.63;;;;;;;3.92;100.00;98228.13;4994603;28;20649;-69
2021/01/22 07:20:15;;;;;;;7.43;3.40;;;;;;;3.98;100.00;98222.88;4990163;28;20336;-68
2021/01/22 07:22:55;;;;;;;9.60;3.80;;;;;;;3.97;100.00;98226.34;4990709;28;20753;-69
2021/01/22 07:25:35;;;;;;;11.53;4.90;;;;;;;3.88;100.00;98231.59;4997225;28;20113;-69
2021/01/22 07:28:05;;;;;;;9.23;4.07;;;;;;;3.87;100.00;98225.59;4990653;28;20270;-69
2021/01/22 07:30:40;;;;;;;12.33;4.10;;;;;;;3.76;100.00;98232.63;4989858;28;20281;-69
2021/01/22 07:33:41;;;;;;;8.50;3.80;;;;;;;3.77;100.00;98235.19;4990810;28;20284;-69
2021/01/22 07:36:19;;;;;;;10.07;4.07;;;;;;;3.78;100.00;98226.56;5007195;28;20281;-68
2021/01/22 07:38:50;;;;;;;16.90;4.30;;;;;;;3.78;100.00;98236.06;4992778;28;20376;-68
2021/01/22 07:41:20;;;;;;;7.97;3.37;;;;;;;3.79;100.00;98238.63;4989809;28;20380;-68
2021/01/22 07:43:57;;;;;;;11.53;4.53;;;;;;;3.83;100.00;98239.44;4990602;28;20282;-69
2021/01/22 07:46:23;;;;;;;8.67;3.87;;;;;;;3.85;100.00;98248.00;4996646;28;20644;-68
2021/01/22 07:48:50;;;;;;;8.27;3.93;;;;;;;3.94;100.00;98250.50;5007923;28;20276;-68
2021/01/22 07:51:32;;;;;;;8.87;3.77;;;;;;;3.97;100.00;98263.38;5000356;28;20030;-69
2021/01/22 07:53:59;;;;;;;14.48;4.32;;;;;;;3.99;100.00;98268.53;5008312;28;20288;-68
2021/01/22 07:56:40;;;;;;;9.67;4.20;;;;;;;3.98;100.00;98259.91;5002208;28;20109;-69
2021/01/22 07:59:07;;;;;;;10.03;4.20;;;;;;;4.09;100.00;98260.66;4990851;28;20331;-69
2021/01/22 08:01:34;;;;;;;8.93;3.83;;;;;;;4.06;100.00;98278.78;4994103;28;20301;-69
2021/01/22 08:03:59;;;;;;;10.37;3.73;;;;;;;4.09;100.00;98276.16;5007328;28;20507;-68
2021/01/22 08:06:25;;;;;;;7.60;3.90;;;;;;;4.18;100.00;98285.53;4997769;28;20348;-68
2021/01/22 08:09:12;;;;;;;12.27;3.97;;;;;;;4.18;100.00;98287.28;4990568;28;20034;-68
2021/01/22 08:11:38;;;;;;;8.40;2.67;;;;;;;4.22;100.00;98284.63;4990823;28;20022;-68
2021/01/22 08:14:03;;;;;;;9.00;4.20;;;;;;;4.23;100.00;98290.66;4990908;28;20286;-68
2021/01/22 08:16:29;;;;;;;9.83;4.47;;;;;;;4.24;100.00;98293.25;4995382;28;20308;-69
2021/01/22 08:18:55;;;;;;;14.00;4.60;;;;;;;4.21;100.00;98293.25;4993892;28;20229;-69
2021/01/22 08:21:20;;;;;;;7.00;3.23;;;;;;;4.28;100.00;98294.91;4994522;28;20096;-69
2021/01/22 08:23:47;;;;;;;10.30;4.10;;;;;;;4.26;100.00;98300.97;5000737;28;20033;-69
2021/01/22 08:26:14;;;;;;;10.47;4.00;;;;;;;4.27;100.00;98297.53;4996554;28;20022;-68
2021/01/22 08:28:41;;;;;;;8.50;3.90;;;;;;;4.28;100.00;98299.22;4993629;28;20269;-69
2021/01/22 08:31:11;;;;;;;11.23;4.60;;;;;;;4.26;100.00;98312.19;4994160;28;20321;-69
2021/01/22 08:33:38;;;;;;;7.90;3.67;;;;;;;4.32;100.00;98306.91;4993321;28;20273;-70
2021/01/22 08:36:06;;;;;;;10.03;4.37;;;;;;;4.42;100.00;98318.03;4993937;28;20838;-69
2021/01/22 08:38:32;;;;;;;8.97;3.93;;;;;;;4.43;100.00;98308.53;5004810;28;20279;-69
2021/01/22 08:40:57;;;;;;;9.37;4.00;;;;;;;4.43;100.00;98324.91;4993657;28;20292;-68
2021/01/22 08:43:24;;;;;;;7.30;3.87;;;;;;;4.43;100.00;98324.03;5003821;28;20799;-69
2021/01/22 08:46:12;;;;;;;10.33;3.43;;;;;;;4.46;100.00;98335.19;4998059;28;20092;-69
2021/01/22 08:48:38;;;;;;;10.13;4.43;;;;;;;4.41;100.00;98337.88;4994096;28;20273;-69
2021/01/22 08:51:05;;;;;;;7.27;3.30;;;;;;;4.36;100.00;98328.41;4995906;28;20270;-69
2021/01/22 08:53:31;;;;;;;12.50;4.33;;;;;;;4.43;100.00;98337.84;4993826;28;20269;-68
2021/01/22 08:56:10;;;;;;;9.30;3.97;;;;;;;4.45;100.00;98343.84;4992339;28;20288;-69
2021/01/22 08:58:59;;;;;;;10.77;4.67;;;;;;;4.38;100.00;98349.97;4993688;28;20080;-69
2021/01/22 09:02:03;;;;;;;7.30;3.50;;;;;;;4.35;100.00;98353.44;4997111;28;20277;-69
2021/01/22 09:04:34;;;;;;;7.67;3.30;;;;;;;4.35;100.00;98344.81;5003573;28;20448;-69
2021/01/22 09:07:01;;;;;;;16.30;5.03;;;;;;;4.31;100.00;98359.53;4991980;28;20352;-68
2021/01/22 09:09:36;;;;;;;9.63;4.20;;;;;;;4.32;100.00;98369.00;4991760;28;20278;-68
2021/01/22 09:12:12;;;;;;;8.17;3.87;;;;;;;4.47;100.00;98370.56;4992970;28;20280;-69
2021/01/22 09:15:01;;;;;;;9.07;4.30;;;;;;;4.46;100.00;98376.59;5001925;28;20281;-69
2021/01/22 09:17:35;;;;;;;9.77;4.27;;;;;;;4.50;100.00;98370.53;4993069;28;20818;-69
2021/01/22 09:20:07;;;;;;;10.30;4.00;;;;;;;4.52;100.00;98386.03;4992938;28;20273;-68
2021/01/22 09:22:33;;;;;;;7.72;4.00;;;;;;;4.51;100.00;98374.84;4993808;28;20723;-69
2021/01/22 09:25:02;;;;;;;12.73;4.00;;;;;;;4.59;100.00;98378.16;4992176;28;20034;-69
2021/01/22 09:27:27;;;;;;;7.47;3.57;;;;;;;4.58;100.00;98381.63;4993125;28;20340;-69
2021/01/22 09:29:53;;;;;;;9.83;3.90;;;;;;;4.58;100.00;98394.56;4992749;28;20688;-69
2021/01/22 09:32:19;;;;;;;10.67;4.37;;;;;;;4.60;100.00;98398.03;4992747;28;20026;-69
2021/01/22 09:34:44;;;;;;;11.80;4.80;;;;;;;4.56;100.00;98414.44;4992552;28;20022;-69
2021/01/22 09:37:10;;;;;;;10.33;4.07;;;;;;;4.59;100.00;98411.81;4995307;28;20305;-68
2021/01/22 09:39:36;;;;;;;11.97;4.73;;;;;;;4.61;100.00;98412.66;4992166;28;20022;-68
2021/01/22 09:42:01;;;;;;;11.30;4.27;;;;;;;4.62;100.00;98419.56;4992030;28;20402;-68
2021/01/22 09:44:27;;;;;;;11.87;4.30;;;;;;;4.69;100.00;98426.34;4991627;28;20022;-69
2021/01/22 09:46:52;;;;;;;5.17;2.43;;;;;;;4.77;100.00;98422.84;4992492;28;20057;-70
2021/01/22 09:49:17;;;;;;;13.60;4.63;;;;;;;4.78;100.00;98440.06;4992604;28;20089;-69
2021/01/22 09:51:43;;;;;;;8.57;4.60;;;;;;;4.74;100.00;98420.28;4991900;28;20532;-70
2021/01/22 09:54:09;;;;;;;9.37;4.57;;;;;;;4.79;100.00;98426.25;4993192;28;20113;-69
2021/01/22 09:56:36;;;;;;;10.80;4.47;;;;;;;4.91;100.00;98426.09;4992027;28;20385;-69
2021/01/22 09:59:06;;;;;;;10.80;4.63;;;;;;;4.83;100.00;98433.94;4992069;28;20277;-70
2021/01/22 10:01:32;;;;;;;9.23;3.93;;;;;;;4.84;100.00;98435.66;4997340;28;20776;-69
2021/01/22 10:03:57;;;;;;;12.43;4.20;;;;;;;4.90;100.00;98432.16;4998571;28;20799;-69
2021/01/22 10:06:22;;;;;;;12.50;5.00;;;;;;;4.93;100.00;98432.09;4991941;28;20360;-69
2021/01/22 10:08:48;;;;;;;10.57;4.33;;;;;;;4.91;100.00;98439.03;4991504;28;20034;-69
2021/01/22 10:11:13;;;;;;;10.93;3.93;;;;;;;4.86;100.00;98436.53;4999285;28;20022;-69
2021/01/22 10:13:39;;;;;;;10.43;5.33;;;;;;;4.88;100.00;98428.75;5011244;28;20124;-69
2021/01/22 10:16:04;;;;;;;8.33;3.67;;;;;;;4.85;100.00;98441.72;5001076;28;20034;-69
2021/01/22 10:18:30;;;;;;;14.00;5.10;;;;;;;4.90;100.00;98439.94;4993449;28;20085;-69
2021/01/22 10:20:55;;;;;;;11.70;4.00;;;;;;;4.98;100.00;98438.97;4992718;28;20033;-69
2021/01/22 10:23:21;;;;;;;9.33;3.97;;;;;;;5.05;100.00;98452.66;4994849;28;20659;-70
2021/01/22 10:25:46;;;;;;;10.17;3.97;;;;;;;5.14;100.00;98457.75;4997236;28;20071;-69
2021/01/22 10:28:11;;;;;;;10.20;3.87;;;;;;;5.21;100.00;98464.56;4991837;28;20057;-69
2021/01/22 10:30:37;;;;;;;12.53;4.83;;;;;;;5.09;99.54;98451.78;4991214;28;20049;-69
2021/01/22 10:33:02;;;;;;;11.60;4.47;;;;;;;5.17;100.00;98455.09;4991699;28;20026;-69
2021/01/22 10:35:28;;;;;;;11.13;4.03;;;;;;;5.23;99.57;98465.41;4990499;28;20490;-69
2021/01/22 10:37:53;;;;;;;8.70;3.43;;;;;;;5.13;100.00;98462.94;4992885;28;20053;-69
2021/01/22 10:40:19;;;;;;;11.97;4.50;;;;;;;5.20;100.00;98465.41;4991723;28;20033;-69
2021/01/22 10:42:44;;;;;;;15.37;5.03;;;;;;;5.24;99.10;98461.94;4991324;28;20022;-70
2021/01/22 10:45:10;;;;;;;10.03;4.00;;;;;;;5.24;98.94;98467.09;4993578;28;20503;-69
2021/01/22 10:47:35;;;;;;;12.47;5.60;;;;;;;5.30;100.00;98466.16;4990869;28;20030;-69
2021/01/22 10:50:04;;;;;;;11.07;4.57;;;;;;;5.43;99.89;98457.34;4991751;28;20034;-69
2021/01/22 10:52:30;;;;;;;10.07;4.27;;;;;;;5.39;98.90;98465.19;4991744;28;20030;-68
2021/01/22 10:54:55;;;;;;;8.70;3.37;;;;;;;5.30;97.97;98476.50;4991312;28;20494;-69
2021/01/22 10:57:21;;;;;;;14.27;4.43;;;;;;;5.21;99.17;98481.84;4991965;28;20034;-69
2021/01/22 10:59:46;;;;;;;11.07;4.00;;;;;;;5.19;98.73;98484.44;4995213;28;20029;-69
2021/01/22 11:02:11;;;;;;;10.47;4.27;;;;;;;5.05;99.80;98486.34;4998669;28;20105;-68
2021/01/22 11:04:40;;;;;;;10.33;4.33;;;;;;;5.02;99.19;98491.56;4990634;28;20532;-69
2021/01/22 11:07:05;;;;;;;10.03;3.70;;;;;;;4.94;99.20;98498.56;4991297;28;20121;-69
2021/01/22 11:09:31;;;;;;;9.97;4.10;;;;;;;4.84;100.00;98499.53;4991019;28;20641;-68
2021/01/22 11:11:57;;;;;;;13.10;3.40;;;;;;;4.89;100.00;98502.94;4990338;28;20026;-69
2021/01/22 11:14:22;;;;;;;16.00;4.00;;;;;;;5.00;99.25;98503.69;4991029;28;20073;-69
2021/01/22 11:16:48;;;;;;;8.50;3.73;;;;;;;5.19;98.16;98499.13;4996658;28;20109;-68
2021/01/22 11:19:13;;;;;;;10.77;4.00;;;;;;;5.43;98.10;98505.72;4991189;28;20030;-69
2021/01/22 11:21:39;;;;;;;15.23;4.77;;;;;;;5.61;98.28;98510.66;4990249;28;20092;-69
2021/01/22 11:24:05;;;;;;;6.73;2.60;;;;;;;5.68;95.82;98509.66;4990833;28;20030;-68
2021/01/22 11:26:31;;;;;;;7.37;3.13;;;;;;;5.60;94.62;98511.53;4990362;28;20561;-68
2021/01/22 11:28:56;;;;;;;10.30;4.07;;;;;;;5.72;95.34;98513.97;4990975;28;20105;-68
2021/01/22 11:31:22;;;;;;;13.67;4.10;;;;;;;5.89;95.50;98530.13;4990339;28;20153;-68
2021/01/22 11:33:47;;;;;;;7.53;3.43;;;;;;;5.75;95.16;98532.06;4990486;28;20088;-69
2021/01/22 11:36:13;;;;;;;10.93;3.80;;;;;;;5.71;96.81;98530.41;4995597;28;20552;-68